sensor_id;sensor_type;location;lat;lon;timestamp;P1;durP1;ratioP1;P2;durP2;ratioP2
30605;SDS011;17371;51.328;3.860;2022-08-21T00:01:24;9.98;;;3.55;;
30605;SDS011;17371;51.328;3.860;2022-08-21T00:03:51;14.97;;;3.50;;
30605;SDS011;17371;51.328;3.860;2022-08-21T00:06:17;9.65;;;3.08;;
30605;SDS011;17371;51.328;3.860;2022-08-21T00:08:43;10.03;;;3.30;;
30605;SDS011;17371;51.328;3.860;2022-08-21T00:11:09;15.75;;;3.40;;
30605;SDS011;17371;51.328;3.860;2022-08-21T00:13:36;9.47;;;3.53;;
30605;SDS011;17371;51.328;3.860;2022-08-21T00:16:02;9.05;;;3.30;;
30605;SDS011;17371;51.328;3.860;2022-08-21T00:18:27;12.60;;;3.15;;
30605;SDS011;17371;51.328;3.860;2022-08-21T00:20:53;13.13;;;3.10;;
30605;SDS011;17371;51.328;3.860;2022-08-21T00:23:18;11.05;;;3.40;;
30605;SDS011;17371;51.328;3.860;2022-08-21T00:25:44;10.40;;;3.10;;
30605;SDS011;17371;51.328;3.860;2022-08-21T00:28:10;13.70;;;3.63;;
30605;SDS011;17371;51.328;3.860;2022-08-21T00:30:38;10.02;;;3.55;;
30605;SDS011;17371;51.328;3.860;2022-08-21T00:33:04;12.10;;;3.42;;
30605;SDS011;17371;51.328;3.860;2022-08-21T00:35:31;12.07;;;3.20;;
30605;SDS011;17371;51.328;3.860;2022-08-21T00:37:58;13.30;;;3.22;;
30605;SDS011;17371;51.328;3.860;2022-08-21T00:40:24;11.43;;;4.30;;
30605;SDS011;17371;51.328;3.860;2022-08-21T00:42:51;14.32;;;4.28;;
30605;SDS011;17371;51.328;3.860;2022-08-21T00:45:17;14.23;;;3.60;;
30605;SDS011;17371;51.328;3.860;2022-08-21T00:47:44;13.30;;;3.70;;
30605;SDS011;17371;51.328;3.860;2022-08-21T00:50:10;14.35;;;3.33;;
30605;SDS011;17371;51.328;3.860;2022-08-21T00:52:37;12.70;;;3.70;;
30605;SDS011;17371;51.328;3.860;2022-08-21T00:55:03;12.00;;;3.78;;
30605;SDS011;17371;51.328;3.860;2022-08-21T00:57:32;12.85;;;4.35;;
30605;SDS011;17371;51.328;3.860;2022-08-21T01:00:00;13.98;;;4.25;;
30605;SDS011;17371;51.328;3.860;2022-08-21T01:02:29;12.35;;;4.28;;
30605;SDS011;17371;51.328;3.860;2022-08-21T01:04:55;14.20;;;4.40;;
30605;SDS011;17371;51.328;3.860;2022-08-21T01:07:21;12.40;;;3.92;;
30605;SDS011;17371;51.328;3.860;2022-08-21T01:09:46;12.68;;;4.00;;
30605;SDS011;17371;51.328;3.860;2022-08-21T01:12:13;12.20;;;4.40;;
30605;SDS011;17371;51.328;3.860;2022-08-21T01:14:39;11.55;;;3.97;;
30605;SDS011;17371;51.328;3.860;2022-08-21T01:17:05;14.35;;;4.57;;
30605;SDS011;17371;51.328;3.860;2022-08-21T01:19:31;11.47;;;4.20;;
30605;SDS011;17371;51.328;3.860;2022-08-21T01:21:58;12.68;;;4.40;;
30605;SDS011;17371;51.328;3.860;2022-08-21T01:24:23;15.45;;;5.22;;
30605;SDS011;17371;51.328;3.860;2022-08-21T01:26:49;18.37;;;4.80;;
30605;SDS011;17371;51.328;3.860;2022-08-21T01:29:16;17.27;;;4.80;;
30605;SDS011;17371;51.328;3.860;2022-08-21T01:31:48;12.20;;;4.53;;
30605;SDS011;17371;51.328;3.860;2022-08-21T01:34:14;11.85;;;4.57;;
30605;SDS011;17371;51.328;3.860;2022-08-21T01:36:40;13.75;;;4.35;;
30605;SDS011;17371;51.328;3.860;2022-08-21T01:39:07;13.10;;;4.57;;
30605;SDS011;17371;51.328;3.860;2022-08-21T01:41:33;17.30;;;4.88;;
30605;SDS011;17371;51.328;3.860;2022-08-21T01:43:58;13.37;;;4.30;;
30605;SDS011;17371;51.328;3.860;2022-08-21T01:46:24;15.80;;;4.57;;
30605;SDS011;17371;51.328;3.860;2022-08-21T01:48:49;11.70;;;4.50;;
30605;SDS011;17371;51.328;3.860;2022-08-21T01:51:15;14.73;;;5.00;;
30605;SDS011;17371;51.328;3.860;2022-08-21T01:53:40;15.57;;;4.43;;
30605;SDS011;17371;51.328;3.860;2022-08-21T01:56:09;15.30;;;4.78;;
30605;SDS011;17371;51.328;3.860;2022-08-21T01:58:36;11.43;;;4.88;;
30605;SDS011;17371;51.328;3.860;2022-08-21T02:01:01;20.77;;;4.85;;
30605;SDS011;17371;51.328;3.860;2022-08-21T02:03:27;15.53;;;4.73;;
30605;SDS011;17371;51.328;3.860;2022-08-21T02:05:53;13.13;;;4.63;;
30605;SDS011;17371;51.328;3.860;2022-08-21T02:08:18;11.63;;;5.00;;
30605;SDS011;17371;51.328;3.860;2022-08-21T02:10:43;15.40;;;5.40;;
30605;SDS011;17371;51.328;3.860;2022-08-21T02:13:10;14.50;;;4.77;;
30605;SDS011;17371;51.328;3.860;2022-08-21T02:15:35;15.27;;;4.50;;
30605;SDS011;17371;51.328;3.860;2022-08-21T02:18:02;11.33;;;4.80;;
30605;SDS011;17371;51.328;3.860;2022-08-21T02:20:30;14.63;;;4.07;;
30605;SDS011;17371;51.328;3.860;2022-08-21T02:22:57;15.70;;;5.07;;
30605;SDS011;17371;51.328;3.860;2022-08-21T02:25:24;13.33;;;4.57;;
30605;SDS011;17371;51.328;3.860;2022-08-21T02:27:50;16.10;;;4.80;;
30605;SDS011;17371;51.328;3.860;2022-08-21T02:30:18;11.43;;;4.03;;
30605;SDS011;17371;51.328;3.860;2022-08-21T02:32:45;17.23;;;4.20;;
30605;SDS011;17371;51.328;3.860;2022-08-21T02:35:11;12.87;;;4.77;;
30605;SDS011;17371;51.328;3.860;2022-08-21T02:37:42;18.50;;;4.40;;
30605;SDS011;17371;51.328;3.860;2022-08-21T02:40:09;12.55;;;4.28;;
30605;SDS011;17371;51.328;3.860;2022-08-21T02:42:35;12.18;;;4.63;;
30605;SDS011;17371;51.328;3.860;2022-08-21T02:45:00;14.37;;;4.37;;
30605;SDS011;17371;51.328;3.860;2022-08-21T02:47:27;10.23;;;4.13;;
30605;SDS011;17371;51.328;3.860;2022-08-21T02:49:52;15.23;;;4.32;;
30605;SDS011;17371;51.328;3.860;2022-08-21T02:52:17;13.50;;;4.73;;
30605;SDS011;17371;51.328;3.860;2022-08-21T02:54:43;15.70;;;5.07;;
30605;SDS011;17371;51.328;3.860;2022-08-21T02:57:08;10.57;;;4.90;;
30605;SDS011;17371;51.328;3.860;2022-08-21T02:59:34;14.88;;;5.30;;
30605;SDS011;17371;51.328;3.860;2022-08-21T03:01:59;13.30;;;5.10;;
30605;SDS011;17371;51.328;3.860;2022-08-21T03:04:26;16.63;;;5.37;;
30605;SDS011;17371;51.328;3.860;2022-08-21T03:06:51;12.50;;;5.50;;
30605;SDS011;17371;51.328;3.860;2022-08-21T03:09:16;15.13;;;5.53;;
30605;SDS011;17371;51.328;3.860;2022-08-21T03:11:42;13.63;;;5.23;;
30605;SDS011;17371;51.328;3.860;2022-08-21T03:14:07;10.13;;;5.10;;
30605;SDS011;17371;51.328;3.860;2022-08-21T03:16:33;12.37;;;4.93;;
30605;SDS011;17371;51.328;3.860;2022-08-21T03:18:58;13.38;;;4.50;;
30605;SDS011;17371;51.328;3.860;2022-08-21T03:21:25;19.15;;;5.55;;
30605;SDS011;17371;51.328;3.860;2022-08-21T03:23:50;12.70;;;4.25;;
30605;SDS011;17371;51.328;3.860;2022-08-21T03:26:15;14.75;;;4.25;;
30605;SDS011;17371;51.328;3.860;2022-08-21T03:28:41;13.47;;;3.97;;
30605;SDS011;17371;51.328;3.860;2022-08-21T03:31:06;12.73;;;4.30;;
30605;SDS011;17371;51.328;3.860;2022-08-21T03:33:32;13.90;;;4.43;;
30605;SDS011;17371;51.328;3.860;2022-08-21T03:35:59;14.50;;;4.15;;
30605;SDS011;17371;51.328;3.860;2022-08-21T03:38:28;14.67;;;4.10;;
30605;SDS011;17371;51.328;3.860;2022-08-21T03:40:54;12.88;;;3.83;;
30605;SDS011;17371;51.328;3.860;2022-08-21T03:43:20;13.50;;;4.30;;
30605;SDS011;17371;51.328;3.860;2022-08-21T03:45:45;12.57;;;4.05;;
30605;SDS011;17371;51.328;3.860;2022-08-21T03:48:11;15.27;;;4.20;;
30605;SDS011;17371;51.328;3.860;2022-08-21T03:50:38;15.47;;;4.43;;
30605;SDS011;17371;51.328;3.860;2022-08-21T03:53:05;10.80;;;4.15;;
30605;SDS011;17371;51.328;3.860;2022-08-21T03:55:32;18.37;;;3.90;;
30605;SDS011;17371;51.328;3.860;2022-08-21T03:57:58;15.65;;;4.53;;
30605;SDS011;17371;51.328;3.860;2022-08-21T04:00:23;11.07;;;4.00;;
30605;SDS011;17371;51.328;3.860;2022-08-21T04:02:49;16.20;;;4.40;;
30605;SDS011;17371;51.328;3.860;2022-08-21T04:05:15;15.63;;;4.00;;
30605;SDS011;17371;51.328;3.860;2022-08-21T04:07:41;14.07;;;3.80;;
30605;SDS011;17371;51.328;3.860;2022-08-21T04:10:07;12.17;;;3.80;;
30605;SDS011;17371;51.328;3.860;2022-08-21T04:12:34;11.90;;;4.70;;
30605;SDS011;17371;51.328;3.860;2022-08-21T04:14:59;14.13;;;4.25;;
30605;SDS011;17371;51.328;3.860;2022-08-21T04:17:25;12.07;;;3.90;;
30605;SDS011;17371;51.328;3.860;2022-08-21T04:19:50;14.17;;;4.33;;
30605;SDS011;17371;51.328;3.860;2022-08-21T04:22:16;14.43;;;4.17;;
30605;SDS011;17371;51.328;3.860;2022-08-21T04:24:41;10.77;;;3.92;;
30605;SDS011;17371;51.328;3.860;2022-08-21T04:27:07;15.55;;;4.15;;
30605;SDS011;17371;51.328;3.860;2022-08-21T04:29:33;13.83;;;4.50;;
30605;SDS011;17371;51.328;3.860;2022-08-21T04:31:59;14.35;;;4.43;;
30605;SDS011;17371;51.328;3.860;2022-08-21T04:34:24;13.43;;;4.40;;
30605;SDS011;17371;51.328;3.860;2022-08-21T04:36:50;15.73;;;5.03;;
30605;SDS011;17371;51.328;3.860;2022-08-21T04:39:15;14.10;;;4.50;;
30605;SDS011;17371;51.328;3.860;2022-08-21T04:41:40;17.37;;;4.40;;
30605;SDS011;17371;51.328;3.860;2022-08-21T04:44:06;11.90;;;4.63;;
30605;SDS011;17371;51.328;3.860;2022-08-21T04:46:33;13.83;;;4.80;;
30605;SDS011;17371;51.328;3.860;2022-08-21T04:48:58;15.68;;;4.55;;
30605;SDS011;17371;51.328;3.860;2022-08-21T04:51:24;13.03;;;4.90;;
30605;SDS011;17371;51.328;3.860;2022-08-21T04:53:52;15.40;;;4.93;;
30605;SDS011;17371;51.328;3.860;2022-08-21T04:56:20;15.27;;;5.10;;
30605;SDS011;17371;51.328;3.860;2022-08-21T04:58:47;20.40;;;4.30;;
30605;SDS011;17371;51.328;3.860;2022-08-21T05:01:15;13.40;;;4.53;;
30605;SDS011;17371;51.328;3.860;2022-08-21T05:03:44;14.45;;;4.75;;
30605;SDS011;17371;51.328;3.860;2022-08-21T05:06:11;14.45;;;4.70;;
30605;SDS011;17371;51.328;3.860;2022-08-21T05:08:38;18.25;;;5.03;;
30605;SDS011;17371;51.328;3.860;2022-08-21T05:11:04;15.80;;;4.57;;
30605;SDS011;17371;51.328;3.860;2022-08-21T05:13:29;15.60;;;5.03;;
30605;SDS011;17371;51.328;3.860;2022-08-21T05:15:55;19.33;;;5.27;;
30605;SDS011;17371;51.328;3.860;2022-08-21T05:18:21;16.52;;;4.43;;
30605;SDS011;17371;51.328;3.860;2022-08-21T05:20:47;13.00;;;4.23;;
30605;SDS011;17371;51.328;3.860;2022-08-21T05:23:13;16.20;;;5.47;;
30605;SDS011;17371;51.328;3.860;2022-08-21T05:25:39;16.35;;;5.20;;
30605;SDS011;17371;51.328;3.860;2022-08-21T05:28:05;18.88;;;4.60;;
30605;SDS011;17371;51.328;3.860;2022-08-21T05:30:30;14.83;;;4.90;;
30605;SDS011;17371;51.328;3.860;2022-08-21T05:32:56;14.97;;;4.63;;
30605;SDS011;17371;51.328;3.860;2022-08-21T05:35:22;18.73;;;4.97;;
30605;SDS011;17371;51.328;3.860;2022-08-21T05:37:49;14.65;;;4.57;;
30605;SDS011;17371;51.328;3.860;2022-08-21T05:40:14;14.23;;;4.77;;
30605;SDS011;17371;51.328;3.860;2022-08-21T05:42:39;16.73;;;4.63;;
30605;SDS011;17371;51.328;3.860;2022-08-21T05:45:05;11.87;;;3.87;;
30605;SDS011;17371;51.328;3.860;2022-08-21T05:47:31;12.07;;;4.13;;
30605;SDS011;17371;51.328;3.860;2022-08-21T05:49:56;10.37;;;4.03;;
30605;SDS011;17371;51.328;3.860;2022-08-21T05:52:22;15.80;;;5.20;;
30605;SDS011;17371;51.328;3.860;2022-08-21T05:54:49;18.77;;;4.55;;
30605;SDS011;17371;51.328;3.860;2022-08-21T05:57:14;10.95;;;4.70;;
30605;SDS011;17371;51.328;3.860;2022-08-21T05:59:40;13.20;;;4.60;;
30605;SDS011;17371;51.328;3.860;2022-08-21T06:02:05;12.63;;;4.77;;
30605;SDS011;17371;51.328;3.860;2022-08-21T06:04:31;18.87;;;5.13;;
30605;SDS011;17371;51.328;3.860;2022-08-21T06:07:00;16.92;;;5.65;;
30605;SDS011;17371;51.328;3.860;2022-08-21T06:09:25;12.20;;;4.57;;
30605;SDS011;17371;51.328;3.860;2022-08-21T06:11:52;13.13;;;5.37;;
30605;SDS011;17371;51.328;3.860;2022-08-21T06:14:17;15.20;;;5.15;;
30605;SDS011;17371;51.328;3.860;2022-08-21T06:16:43;12.60;;;4.57;;
30605;SDS011;17371;51.328;3.860;2022-08-21T06:19:08;17.13;;;5.33;;
30605;SDS011;17371;51.328;3.860;2022-08-21T06:21:34;16.80;;;5.40;;
30605;SDS011;17371;51.328;3.860;2022-08-21T06:23:59;12.73;;;4.95;;
30605;SDS011;17371;51.328;3.860;2022-08-21T06:26:24;17.30;;;5.23;;
30605;SDS011;17371;51.328;3.860;2022-08-21T06:28:51;10.77;;;4.57;;
30605;SDS011;17371;51.328;3.860;2022-08-21T06:31:17;13.68;;;4.85;;
30605;SDS011;17371;51.328;3.860;2022-08-21T06:33:44;13.75;;;4.80;;
30605;SDS011;17371;51.328;3.860;2022-08-21T06:36:10;12.88;;;4.97;;
30605;SDS011;17371;51.328;3.860;2022-08-21T06:38:36;14.98;;;5.35;;
30605;SDS011;17371;51.328;3.860;2022-08-21T06:41:01;13.07;;;5.07;;
30605;SDS011;17371;51.328;3.860;2022-08-21T06:43:27;14.18;;;4.90;;
30605;SDS011;17371;51.328;3.860;2022-08-21T06:45:54;15.80;;;5.60;;
30605;SDS011;17371;51.328;3.860;2022-08-21T06:48:19;17.10;;;5.25;;
30605;SDS011;17371;51.328;3.860;2022-08-21T06:50:45;14.67;;;5.23;;
30605;SDS011;17371;51.328;3.860;2022-08-21T06:53:12;17.67;;;5.80;;
30605;SDS011;17371;51.328;3.860;2022-08-21T06:55:38;12.18;;;5.22;;
30605;SDS011;17371;51.328;3.860;2022-08-21T06:58:05;13.48;;;6.22;;
30605;SDS011;17371;51.328;3.860;2022-08-21T07:00:30;12.25;;;5.95;;
30605;SDS011;17371;51.328;3.860;2022-08-21T07:02:57;17.67;;;5.97;;
30605;SDS011;17371;51.328;3.860;2022-08-21T07:05:24;16.02;;;5.18;;
30605;SDS011;17371;51.328;3.860;2022-08-21T07:07:50;15.15;;;5.78;;
30605;SDS011;17371;51.328;3.860;2022-08-21T07:10:15;15.93;;;5.03;;
30605;SDS011;17371;51.328;3.860;2022-08-21T07:12:41;11.13;;;4.93;;
30605;SDS011;17371;51.328;3.860;2022-08-21T07:15:07;14.85;;;5.50;;
30605;SDS011;17371;51.328;3.860;2022-08-21T07:17:33;19.77;;;6.13;;
30605;SDS011;17371;51.328;3.860;2022-08-21T07:20:00;16.80;;;5.37;;
30605;SDS011;17371;51.328;3.860;2022-08-21T07:22:25;14.65;;;5.80;;
30605;SDS011;17371;51.328;3.860;2022-08-21T07:24:51;15.73;;;5.70;;
30605;SDS011;17371;51.328;3.860;2022-08-21T07:27:16;16.97;;;5.60;;
30605;SDS011;17371;51.328;3.860;2022-08-21T07:29:41;15.27;;;5.77;;
30605;SDS011;17371;51.328;3.860;2022-08-21T07:32:07;15.83;;;5.60;;
30605;SDS011;17371;51.328;3.860;2022-08-21T07:34:32;17.87;;;6.07;;
30605;SDS011;17371;51.328;3.860;2022-08-21T07:36:59;13.50;;;5.68;;
30605;SDS011;17371;51.328;3.860;2022-08-21T07:39:24;16.92;;;5.22;;
30605;SDS011;17371;51.328;3.860;2022-08-21T07:41:50;13.43;;;5.53;;
30605;SDS011;17371;51.328;3.860;2022-08-21T07:44:15;19.60;;;5.57;;
30605;SDS011;17371;51.328;3.860;2022-08-21T07:46:41;13.77;;;5.57;;
30605;SDS011;17371;51.328;3.860;2022-08-21T07:49:06;14.03;;;4.80;;
30605;SDS011;17371;51.328;3.860;2022-08-21T07:51:32;13.83;;;5.10;;
30605;SDS011;17371;51.328;3.860;2022-08-21T07:53:59;21.30;;;5.30;;
30605;SDS011;17371;51.328;3.860;2022-08-21T07:56:25;17.65;;;4.95;;
30605;SDS011;17371;51.328;3.860;2022-08-21T07:58:50;17.88;;;5.20;;
30605;SDS011;17371;51.328;3.860;2022-08-21T08:01:16;17.83;;;5.23;;
30605;SDS011;17371;51.328;3.860;2022-08-21T08:03:42;14.80;;;5.07;;
30605;SDS011;17371;51.328;3.860;2022-08-21T08:06:08;11.87;;;4.70;;
30605;SDS011;17371;51.328;3.860;2022-08-21T08:08:33;14.70;;;4.70;;
30605;SDS011;17371;51.328;3.860;2022-08-21T08:11:00;16.40;;;4.60;;
30605;SDS011;17371;51.328;3.860;2022-08-21T08:13:26;16.15;;;4.55;;
30605;SDS011;17371;51.328;3.860;2022-08-21T08:15:51;16.10;;;4.77;;
30605;SDS011;17371;51.328;3.860;2022-08-21T08:18:17;14.63;;;3.95;;
30605;SDS011;17371;51.328;3.860;2022-08-21T08:20:42;14.97;;;3.80;;
30605;SDS011;17371;51.328;3.860;2022-08-21T08:23:09;13.93;;;3.63;;
30605;SDS011;17371;51.328;3.860;2022-08-21T08:25:34;14.90;;;4.22;;
30605;SDS011;17371;51.328;3.860;2022-08-21T08:28:01;13.90;;;3.60;;
30605;SDS011;17371;51.328;3.860;2022-08-21T08:30:27;14.63;;;4.40;;
30605;SDS011;17371;51.328;3.860;2022-08-21T08:32:53;17.13;;;4.00;;
30605;SDS011;17371;51.328;3.860;2022-08-21T08:35:18;14.17;;;4.07;;
30605;SDS011;17371;51.328;3.860;2022-08-21T08:37:44;16.65;;;3.92;;
30605;SDS011;17371;51.328;3.860;2022-08-21T08:40:10;13.07;;;3.40;;
30605;SDS011;17371;51.328;3.860;2022-08-21T08:42:36;12.77;;;3.28;;
30605;SDS011;17371;51.328;3.860;2022-08-21T08:45:04;14.40;;;3.23;;
30605;SDS011;17371;51.328;3.860;2022-08-21T08:47:32;16.02;;;3.33;;
30605;SDS011;17371;51.328;3.860;2022-08-21T08:50:03;12.82;;;3.42;;
30605;SDS011;17371;51.328;3.860;2022-08-21T08:52:31;11.82;;;3.42;;
30605;SDS011;17371;51.328;3.860;2022-08-21T08:55:00;11.43;;;3.22;;
30605;SDS011;17371;51.328;3.860;2022-08-21T08:57:27;11.30;;;2.92;;
30605;SDS011;17371;51.328;3.860;2022-08-21T08:59:53;13.20;;;3.17;;
30605;SDS011;17371;51.328;3.860;2022-08-21T09:02:22;14.30;;;2.85;;
30605;SDS011;17371;51.328;3.860;2022-08-21T09:04:48;10.10;;;2.78;;
30605;SDS011;17371;51.328;3.860;2022-08-21T09:07:16;9.55;;;2.70;;
30605;SDS011;17371;51.328;3.860;2022-08-21T09:09:48;12.90;;;3.50;;
30605;SDS011;17371;51.328;3.860;2022-08-21T09:12:31;13.43;;;2.63;;
30605;SDS011;17371;51.328;3.860;2022-08-21T09:15:02;14.38;;;2.92;;
30605;SDS011;17371;51.328;3.860;2022-08-21T09:17:42;9.00;;;2.30;;
30605;SDS011;17371;51.328;3.860;2022-08-21T09:20:19;12.07;;;3.03;;
30605;SDS011;17371;51.328;3.860;2022-08-21T09:22:53;12.73;;;2.72;;
30605;SDS011;17371;51.328;3.860;2022-08-21T09:25:26;13.27;;;3.45;;
30605;SDS011;17371;51.328;3.860;2022-08-21T09:27:53;11.95;;;2.70;;
30605;SDS011;17371;51.328;3.860;2022-08-21T09:30:19;10.20;;;2.45;;
30605;SDS011;17371;51.328;3.860;2022-08-21T09:32:50;10.85;;;2.53;;
30605;SDS011;17371;51.328;3.860;2022-08-21T09:35:17;12.32;;;2.40;;
30605;SDS011;17371;51.328;3.860;2022-08-21T09:37:48;10.60;;;2.40;;
30605;SDS011;17371;51.328;3.860;2022-08-21T09:40:18;11.35;;;2.13;;
30605;SDS011;17371;51.328;3.860;2022-08-21T09:42:55;9.57;;;2.10;;
30605;SDS011;17371;51.328;3.860;2022-08-21T09:45:22;9.82;;;2.38;;
30605;SDS011;17371;51.328;3.860;2022-08-21T09:47:47;11.13;;;2.30;;
30605;SDS011;17371;51.328;3.860;2022-08-21T09:50:16;10.10;;;2.30;;
30605;SDS011;17371;51.328;3.860;2022-08-21T09:52:42;10.27;;;2.38;;
30605;SDS011;17371;51.328;3.860;2022-08-21T09:55:13;12.77;;;2.50;;
30605;SDS011;17371;51.328;3.860;2022-08-21T09:57:43;9.63;;;2.22;;
30605;SDS011;17371;51.328;3.860;2022-08-21T10:00:11;8.45;;;2.38;;
30605;SDS011;17371;51.328;3.860;2022-08-21T10:02:43;10.43;;;2.10;;
30605;SDS011;17371;51.328;3.860;2022-08-21T10:05:14;13.55;;;2.42;;
30605;SDS011;17371;51.328;3.860;2022-08-21T10:07:42;10.97;;;2.20;;
30605;SDS011;17371;51.328;3.860;2022-08-21T10:10:12;9.80;;;1.98;;
30605;SDS011;17371;51.328;3.860;2022-08-21T10:12:45;10.27;;;2.07;;
30605;SDS011;17371;51.328;3.860;2022-08-21T10:15:17;12.20;;;2.28;;
30605;SDS011;17371;51.328;3.860;2022-08-21T10:17:48;9.77;;;2.00;;
30605;SDS011;17371;51.328;3.860;2022-08-21T10:20:20;7.15;;;1.98;;
30605;SDS011;17371;51.328;3.860;2022-08-21T10:22:50;11.80;;;2.17;;
30605;SDS011;17371;51.328;3.860;2022-08-21T10:25:29;9.43;;;1.90;;
30605;SDS011;17371;51.328;3.860;2022-08-21T10:27:58;10.95;;;2.20;;
30605;SDS011;17371;51.328;3.860;2022-08-21T10:30:36;9.43;;;1.90;;
30605;SDS011;17371;51.328;3.860;2022-08-21T10:33:08;10.02;;;2.10;;
30605;SDS011;17371;51.328;3.860;2022-08-21T10:35:41;8.40;;;1.95;;
30605;SDS011;17371;51.328;3.860;2022-08-21T10:38:19;10.43;;;2.33;;
30605;SDS011;17371;51.328;3.860;2022-08-21T10:40:56;10.27;;;2.10;;
30605;SDS011;17371;51.328;3.860;2022-08-21T10:43:26;9.02;;;2.50;;
30605;SDS011;17371;51.328;3.860;2022-08-21T10:45:57;11.23;;;2.40;;
30605;SDS011;17371;51.328;3.860;2022-08-21T10:48:28;8.55;;;2.10;;
30605;SDS011;17371;51.328;3.860;2022-08-21T10:50:58;9.43;;;2.10;;
30605;SDS011;17371;51.328;3.860;2022-08-21T10:53:36;12.90;;;2.30;;
30605;SDS011;17371;51.328;3.860;2022-08-21T10:56:21;8.55;;;2.30;;
30605;SDS011;17371;51.328;3.860;2022-08-21T10:58:51;9.23;;;2.05;;
30605;SDS011;17371;51.328;3.860;2022-08-21T11:01:27;8.82;;;2.05;;
30605;SDS011;17371;51.328;3.860;2022-08-21T11:04:07;10.27;;;2.30;;
30605;SDS011;17371;51.328;3.860;2022-08-21T11:06:38;9.88;;;2.33;;
30605;SDS011;17371;51.328;3.860;2022-08-21T11:09:09;13.18;;;2.47;;
30605;SDS011;17371;51.328;3.860;2022-08-21T11:11:38;7.60;;;2.15;;
30605;SDS011;17371;51.328;3.860;2022-08-21T11:14:09;8.80;;;2.15;;
30605;SDS011;17371;51.328;3.860;2022-08-21T11:16:44;10.73;;;2.27;;
30605;SDS011;17371;51.328;3.860;2022-08-21T11:19:13;7.40;;;1.95;;
30605;SDS011;17371;51.328;3.860;2022-08-21T11:21:44;7.20;;;2.00;;
30605;SDS011;17371;51.328;3.860;2022-08-21T11:24:22;7.13;;;2.15;;
30605;SDS011;17371;51.328;3.860;2022-08-21T11:26:51;7.97;;;2.33;;
30605;SDS011;17371;51.328;3.860;2022-08-21T11:29:22;10.33;;;1.90;;
30605;SDS011;17371;51.328;3.860;2022-08-21T11:31:56;7.88;;;2.13;;
30605;SDS011;17371;51.328;3.860;2022-08-21T11:34:31;10.65;;;2.42;;
30605;SDS011;17371;51.328;3.860;2022-08-21T11:37:07;9.38;;;2.10;;
30605;SDS011;17371;51.328;3.860;2022-08-21T11:39:41;8.57;;;2.20;;
30605;SDS011;17371;51.328;3.860;2022-08-21T11:42:13;9.53;;;2.20;;
30605;SDS011;17371;51.328;3.860;2022-08-21T11:44:47;9.98;;;2.22;;
30605;SDS011;17371;51.328;3.860;2022-08-21T11:47:15;10.13;;;2.20;;
30605;SDS011;17371;51.328;3.860;2022-08-21T11:49:49;11.02;;;2.17;;
30605;SDS011;17371;51.328;3.860;2022-08-21T11:52:20;8.27;;;1.92;;
30605;SDS011;17371;51.328;3.860;2022-08-21T11:54:49;7.33;;;2.10;;
30605;SDS011;17371;51.328;3.860;2022-08-21T11:57:20;11.35;;;2.15;;
30605;SDS011;17371;51.328;3.860;2022-08-21T11:59:49;7.53;;;2.00;;
30605;SDS011;17371;51.328;3.860;2022-08-21T12:02:19;11.90;;;2.25;;
30605;SDS011;17371;51.328;3.860;2022-08-21T12:04:47;7.95;;;2.50;;
30605;SDS011;17371;51.328;3.860;2022-08-21T12:07:16;8.13;;;2.10;;
30605;SDS011;17371;51.328;3.860;2022-08-21T12:09:54;10.02;;;2.05;;
30605;SDS011;17371;51.328;3.860;2022-08-21T12:12:24;7.47;;;2.00;;
30605;SDS011;17371;51.328;3.860;2022-08-21T12:15:03;11.73;;;2.35;;
30605;SDS011;17371;51.328;3.860;2022-08-21T12:17:35;8.38;;;2.20;;
30605;SDS011;17371;51.328;3.860;2022-08-21T12:20:14;8.83;;;2.10;;
30605;SDS011;17371;51.328;3.860;2022-08-21T12:22:47;7.95;;;2.00;;
30605;SDS011;17371;51.328;3.860;2022-08-21T12:25:17;7.32;;;2.47;;
30605;SDS011;17371;51.328;3.860;2022-08-21T12:27:44;10.05;;;2.20;;
30605;SDS011;17371;51.328;3.860;2022-08-21T12:30:19;7.72;;;1.90;;
30605;SDS011;17371;51.328;3.860;2022-08-21T12:32:54;5.87;;;2.13;;
30605;SDS011;17371;51.328;3.860;2022-08-21T12:35:21;9.70;;;2.40;;
30605;SDS011;17371;51.328;3.860;2022-08-21T12:37:52;10.38;;;2.15;;
30605;SDS011;17371;51.328;3.860;2022-08-21T12:40:26;8.30;;;1.92;;
30605;SDS011;17371;51.328;3.860;2022-08-21T12:42:54;4.95;;;1.98;;
30605;SDS011;17371;51.328;3.860;2022-08-21T12:45:23;6.63;;;2.07;;
30605;SDS011;17371;51.328;3.860;2022-08-21T12:47:54;8.45;;;2.13;;
30605;SDS011;17371;51.328;3.860;2022-08-21T12:50:24;8.30;;;2.08;;
30605;SDS011;17371;51.328;3.860;2022-08-21T12:53:02;9.10;;;2.20;;
30605;SDS011;17371;51.328;3.860;2022-08-21T12:55:32;8.05;;;2.20;;
30605;SDS011;17371;51.328;3.860;2022-08-21T12:57:59;8.87;;;1.90;;
30605;SDS011;17371;51.328;3.860;2022-08-21T13:00:25;10.15;;;1.95;;
30605;SDS011;17371;51.328;3.860;2022-08-21T13:02:52;6.43;;;2.00;;
30605;SDS011;17371;51.328;3.860;2022-08-21T13:05:26;7.43;;;2.15;;
30605;SDS011;17371;51.328;3.860;2022-08-21T13:07:54;6.53;;;2.13;;
30605;SDS011;17371;51.328;3.860;2022-08-21T13:10:20;9.23;;;1.93;;
30605;SDS011;17371;51.328;3.860;2022-08-21T13:12:48;6.80;;;1.90;;
30605;SDS011;17371;51.328;3.860;2022-08-21T13:15:14;8.83;;;1.63;;
30605;SDS011;17371;51.328;3.860;2022-08-21T13:17:41;6.20;;;1.60;;
30605;SDS011;17371;51.328;3.860;2022-08-21T13:20:09;10.18;;;2.00;;
30605;SDS011;17371;51.328;3.860;2022-08-21T13:22:45;11.75;;;2.05;;
30605;SDS011;17371;51.328;3.860;2022-08-21T13:25:11;6.37;;;1.80;;
30605;SDS011;17371;51.328;3.860;2022-08-21T13:27:37;7.55;;;1.95;;
30605;SDS011;17371;51.328;3.860;2022-08-21T13:30:06;8.23;;;2.13;;
30605;SDS011;17371;51.328;3.860;2022-08-21T13:32:34;7.03;;;1.73;;
30605;SDS011;17371;51.328;3.860;2022-08-21T13:35:07;9.38;;;2.13;;
30605;SDS011;17371;51.328;3.860;2022-08-21T13:37:34;7.80;;;1.90;;
30605;SDS011;17371;51.328;3.860;2022-08-21T13:40:00;6.60;;;1.70;;
30605;SDS011;17371;51.328;3.860;2022-08-21T13:42:26;9.32;;;2.15;;
30605;SDS011;17371;51.328;3.860;2022-08-21T13:44:52;9.95;;;1.98;;
30605;SDS011;17371;51.328;3.860;2022-08-21T13:47:19;8.02;;;2.13;;
30605;SDS011;17371;51.328;3.860;2022-08-21T13:49:45;8.68;;;1.85;;
30605;SDS011;17371;51.328;3.860;2022-08-21T13:52:15;4.90;;;1.70;;
30605;SDS011;17371;51.328;3.860;2022-08-21T13:54:42;6.72;;;1.80;;
30605;SDS011;17371;51.328;3.860;2022-08-21T13:57:15;11.68;;;2.20;;
30605;SDS011;17371;51.328;3.860;2022-08-21T13:59:41;10.27;;;2.15;;
30605;SDS011;17371;51.328;3.860;2022-08-21T14:02:08;12.80;;;2.45;;
30605;SDS011;17371;51.328;3.860;2022-08-21T14:04:37;9.27;;;1.70;;
30605;SDS011;17371;51.328;3.860;2022-08-21T14:07:14;9.48;;;1.80;;
30605;SDS011;17371;51.328;3.860;2022-08-21T14:09:41;9.98;;;2.20;;
30605;SDS011;17371;51.328;3.860;2022-08-21T14:12:11;10.75;;;2.10;;
30605;SDS011;17371;51.328;3.860;2022-08-21T14:14:38;10.20;;;2.08;;
30605;SDS011;17371;51.328;3.860;2022-08-21T14:17:05;10.60;;;2.13;;
30605;SDS011;17371;51.328;3.860;2022-08-21T14:19:36;8.90;;;2.13;;
30605;SDS011;17371;51.328;3.860;2022-08-21T14:24:48;7.95;;;2.10;;
30605;SDS011;17371;51.328;3.860;2022-08-21T14:27:15;8.97;;;2.17;;
30605;SDS011;17371;51.328;3.860;2022-08-21T14:29:41;9.32;;;2.10;;
30605;SDS011;17371;51.328;3.860;2022-08-21T14:32:12;10.53;;;2.30;;
30605;SDS011;17371;51.328;3.860;2022-08-21T14:34:41;7.80;;;1.75;;
30605;SDS011;17371;51.328;3.860;2022-08-21T14:37:06;6.75;;;2.03;;
30605;SDS011;17371;51.328;3.860;2022-08-21T14:39:31;10.43;;;2.20;;
30605;SDS011;17371;51.328;3.860;2022-08-21T14:41:57;8.80;;;2.00;;
30605;SDS011;17371;51.328;3.860;2022-08-21T14:44:22;8.80;;;2.10;;